createdAt,value
2023-01-17T00:02:18.796Z,91.80
2023-01-17T00:05:05.275Z,92.43
2023-01-17T00:07:51.320Z,93.34
2023-01-17T00:10:24.809Z,92.16
2023-01-17T00:12:59.901Z,91.48
2023-01-17T00:15:30.850Z,92.47
2023-01-17T00:17:58.698Z,92.10
2023-01-17T00:20:48.477Z,91.20
2023-01-17T00:23:43.715Z,92.16
2023-01-17T00:26:21.189Z,91.47
2023-01-17T00:28:48.953Z,91.11
2023-01-17T00:31:16.895Z,90.41
2023-01-17T00:33:43.947Z,91.23
2023-01-17T00:36:12.113Z,91.11
2023-01-17T00:38:40.238Z,89.83
2023-01-17T00:41:13.898Z,90.02
2023-01-17T00:43:59.874Z,89.61
2023-01-17T00:46:45.344Z,90.72
2023-01-17T00:49:31.133Z,90.92
2023-01-17T00:52:16.790Z,90.57
2023-01-17T00:55:02.757Z,90.50
2023-01-17T00:57:48.914Z,91.70
2023-01-17T01:00:37.546Z,91.12
2023-01-17T01:03:30.790Z,91.09
2023-01-17T01:06:16.304Z,91.30
2023-01-17T01:09:02.071Z,90.52
2023-01-17T01:11:47.676Z,91.14
2023-01-17T01:14:33.117Z,90.63
2023-01-17T01:17:18.782Z,89.75
2023-01-17T01:20:04.837Z,90.58
2023-01-17T01:22:50.476Z,90.83
2023-01-17T01:25:35.897Z,90.78
2023-01-17T01:28:29.791Z,90.88
2023-01-17T01:31:19.082Z,90.46
2023-01-17T01:33:46.101Z,89.36
2023-01-17T01:36:13.251Z,90.72
2023-01-17T01:38:40.254Z,89.95
2023-01-17T01:41:07.285Z,90.54
2023-01-17T01:43:47.728Z,90.56
2023-01-17T01:46:35.543Z,89.87
2023-01-17T01:49:28.355Z,90.62
2023-01-17T01:52:00.207Z,90.23
2023-01-17T01:55:00.380Z,90.59
2023-01-17T01:57:34.902Z,89.89
2023-01-17T02:00:24.877Z,90.30
2023-01-17T02:02:57.097Z,90.08
2023-01-17T02:05:28.715Z,90.50
2023-01-17T02:08:07.760Z,89.07
2023-01-17T02:10:44.296Z,89.82
2023-01-17T02:13:15.827Z,89.45
2023-01-17T02:16:14.043Z,89.81
2023-01-17T02:19:20.726Z,89.90
2023-01-17T02:22:12.793Z,89.18
2023-01-17T02:25:06.011Z,88.89
2023-01-17T02:27:52.559Z,89.55
2023-01-17T02:30:22.142Z,90.57
2023-01-17T02:33:16.517Z,90.32
2023-01-17T02:36:22.979Z,89.44
2023-01-17T02:38:58.116Z,90.76
2023-01-17T02:41:35.083Z,90.80
2023-01-17T02:44:03.687Z,90.65
2023-01-17T02:46:31.445Z,89.73
2023-01-17T02:49:00.350Z,89.82
2023-01-17T02:51:52.651Z,89.89
2023-01-17T02:54:39.824Z,89.96
2023-01-17T02:57:28.483Z,89.55
2023-01-17T03:00:28.386Z,90.78
2023-01-17T03:03:05.858Z,90.22
2023-01-17T03:05:50.424Z,90.69
2023-01-17T03:08:17.754Z,90.46
2023-01-17T03:10:45.989Z,90.43
2023-01-17T03:13:13.055Z,89.79
2023-01-17T03:15:41.286Z,89.85
2023-01-17T03:18:14.722Z,90.85
2023-01-17T03:20:42.129Z,91.03
2023-01-17T03:23:09.345Z,90.85
2023-01-17T03:25:36.740Z,90.66
2023-01-17T03:28:04.432Z,90.93
2023-01-17T03:30:31.705Z,90.74
2023-01-17T03:32:58.727Z,91.02
2023-01-17T03:35:25.748Z,90.97
2023-01-17T03:37:52.753Z,90.56
2023-01-17T03:40:19.889Z,90.72
2023-01-17T03:42:46.920Z,91.29
2023-01-17T03:45:14.028Z,91.56
2023-01-17T03:47:40.914Z,91.42
2023-01-17T03:50:08.866Z,91.50
2023-01-17T03:52:35.815Z,91.36
2023-01-17T03:55:02.854Z,91.67
2023-01-17T03:57:30.004Z,90.91
2023-01-17T03:59:57.885Z,90.63
2023-01-17T04:02:25.968Z,90.83
2023-01-17T04:04:53.021Z,90.07
2023-01-17T04:07:20.536Z,90.19
2023-01-17T04:09:47.503Z,89.96
2023-01-17T04:12:14.803Z,89.26
2023-01-17T04:14:41.806Z,90.05
2023-01-17T04:17:13.276Z,89.83
2023-01-17T04:19:41.196Z,90.31
2023-01-17T04:22:08.770Z,90.67
2023-01-17T04:24:36.065Z,90.19
2023-01-17T04:27:05.108Z,90.58
2023-01-17T04:29:32.736Z,90.36
2023-01-17T04:31:59.694Z,90.63
2023-01-17T04:34:27.130Z,89.31
2023-01-17T04:36:54.150Z,89.33
2023-01-17T04:39:21.134Z,90.41
2023-01-17T04:41:48.248Z,89.83
2023-01-17T04:44:16.431Z,89.64
2023-01-17T04:46:43.375Z,89.04
2023-01-17T04:49:10.428Z,88.94
2023-01-17T04:51:37.342Z,88.74
2023-01-17T04:54:04.455Z,89.02
2023-01-17T04:56:31.357Z,89.00
2023-01-17T04:58:58.939Z,89.51
2023-01-17T05:01:26.678Z,88.95
2023-01-17T05:03:53.692Z,90.01
2023-01-17T05:06:20.652Z,88.88
2023-01-17T05:08:47.624Z,88.48
2023-01-17T05:11:14.876Z,88.44
2023-01-17T05:13:42.124Z,88.28
2023-01-17T05:16:09.158Z,88.47
2023-01-17T05:18:36.296Z,88.92
2023-01-17T05:21:04.425Z,89.73
2023-01-17T05:23:32.448Z,88.70
2023-01-17T05:25:59.774Z,89.29
2023-01-17T05:28:26.974Z,88.04
2023-01-17T05:30:53.999Z,88.80
2023-01-17T05:33:21.091Z,89.40
2023-01-17T05:35:48.062Z,88.99
2023-01-17T05:38:15.035Z,88.27
2023-01-17T05:40:42.012Z,88.13
2023-01-17T05:43:09.113Z,87.70
2023-01-17T05:45:36.382Z,88.00
2023-01-17T05:48:04.351Z,88.91
2023-01-17T05:50:35.641Z,88.20
2023-01-17T05:53:15.402Z,88.35
2023-01-17T05:55:42.955Z,87.74
2023-01-17T05:58:20.978Z,87.90
2023-01-17T06:00:52.569Z,88.20
2023-01-17T06:03:22.223Z,89.29
2023-01-17T06:05:50.229Z,88.51
2023-01-17T06:08:17.325Z,89.59
2023-01-17T06:10:44.195Z,89.05
2023-01-17T06:13:15.333Z,89.26
2023-01-17T06:15:42.679Z,89.67
2023-01-17T06:18:13.095Z,89.54
2023-01-17T06:20:41.904Z,89.53
2023-01-17T06:23:12.662Z,90.58
2023-01-17T06:25:45.206Z,89.61
2023-01-17T06:28:18.973Z,89.95
2023-01-17T06:30:46.785Z,90.40
2023-01-17T06:33:14.527Z,90.54
2023-01-17T06:35:53.328Z,90.85
2023-01-17T06:38:21.120Z,89.80
2023-01-17T06:40:49.200Z,89.92
2023-01-17T06:43:19.118Z,89.98
2023-01-17T06:45:46.221Z,90.93
2023-01-17T06:48:13.391Z,90.79
2023-01-17T06:50:40.385Z,91.29
2023-01-17T06:53:07.975Z,91.09
2023-01-17T06:55:37.265Z,91.53
2023-01-17T06:58:04.183Z,90.62
2023-01-17T07:00:35.003Z,91.02
2023-01-17T07:03:02.859Z,90.60
2023-01-17T07:05:29.833Z,91.37
2023-01-17T07:07:57.820Z,90.31
2023-01-17T07:10:24.741Z,90.89
2023-01-17T07:12:51.687Z,90.59
2023-01-17T07:15:18.689Z,91.71
2023-01-17T07:17:45.712Z,92.16
2023-01-17T07:20:13.920Z,93.10
2023-01-17T07:22:45.487Z,93.98
2023-01-17T07:25:12.929Z,93.91
2023-01-17T07:27:39.956Z,93.06
2023-01-17T07:30:07.731Z,94.17
2023-01-17T07:32:35.368Z,93.89
2023-01-17T07:35:02.324Z,94.07
2023-01-17T07:37:29.345Z,93.63
2023-01-17T07:39:56.379Z,93.18
2023-01-17T07:42:24.520Z,93.66
2023-01-17T07:44:51.519Z,94.44
2023-01-17T07:47:18.542Z,94.33
2023-01-17T07:49:45.609Z,93.67
2023-01-17T07:52:12.615Z,94.50
2023-01-17T07:54:39.670Z,94.24
2023-01-17T07:57:12.452Z,95.40
2023-01-17T07:59:40.387Z,95.53
2023-01-17T08:02:17.721Z,93.99
2023-01-17T08:04:45.335Z,94.93
2023-01-17T08:07:14.008Z,94.78
2023-01-17T08:09:42.314Z,94.86
2023-01-17T08:12:10.329Z,95.13
2023-01-17T08:14:37.291Z,94.30
2023-01-17T08:17:11.489Z,94.35
2023-01-17T08:19:38.948Z,94.86
2023-01-17T08:22:06.342Z,94.85
2023-01-17T08:24:33.899Z,94.49
2023-01-17T08:27:00.855Z,94.96
2023-01-17T08:29:28.180Z,94.44
2023-01-17T08:31:55.793Z,94.53
2023-01-17T08:34:23.830Z,95.27
2023-01-17T08:36:53.897Z,94.95
2023-01-17T08:39:22.167Z,95.04
2023-01-17T08:41:49.440Z,94.99
2023-01-17T08:44:16.548Z,94.81
2023-01-17T08:46:47.208Z,94.47
2023-01-17T08:49:14.338Z,94.99
2023-01-17T08:51:41.551Z,94.84
2023-01-17T08:54:11.914Z,94.61
2023-01-17T08:56:39.527Z,94.28
2023-01-17T08:59:06.729Z,94.77
2023-01-17T09:01:40.792Z,94.91
2023-01-17T09:04:14.100Z,94.81
2023-01-17T09:06:45.451Z,94.44
2023-01-17T09:09:13.646Z,95.37
2023-01-17T09:11:40.641Z,95.14
2023-01-17T09:14:07.734Z,95.17
2023-01-17T09:16:34.932Z,95.66
2023-01-17T09:19:01.995Z,95.61
2023-01-17T09:21:29.020Z,95.46
2023-01-17T09:23:56.371Z,95.31
2023-01-17T09:26:29.282Z,95.63
2023-01-17T09:28:56.501Z,94.90
2023-01-17T09:31:24.590Z,95.15
2023-01-17T09:33:53.230Z,95.35
2023-01-17T09:36:22.213Z,95.65
2023-01-17T09:38:49.556Z,95.26
2023-01-17T09:41:29.164Z,95.81
2023-01-17T09:44:23.782Z,95.70
2023-01-17T09:46:55.279Z,96.29
2023-01-17T09:49:45.518Z,95.88
2023-01-17T09:52:17.874Z,96.04
2023-01-17T09:54:48.575Z,94.55
2023-01-17T09:57:54.762Z,95.36
2023-01-17T10:00:34.128Z,94.83
2023-01-17T10:03:32.099Z,95.20
2023-01-17T10:06:28.257Z,95.22
2023-01-17T10:09:25.250Z,95.18
2023-01-17T10:12:16.351Z,94.93
2023-01-17T10:15:39.968Z,96.11
2023-01-17T10:18:30.421Z,95.29
2023-01-17T10:21:23.985Z,95.74
2023-01-17T10:24:22.290Z,95.84
2023-01-17T10:26:56.340Z,95.31
2023-01-17T10:29:30.160Z,95.89
2023-01-17T10:32:02.750Z,95.58
2023-01-17T10:34:51.604Z,95.84
2023-01-17T10:37:31.647Z,96.32
2023-01-17T10:40:24.936Z,95.67
2023-01-17T10:43:15.033Z,95.82
2023-01-17T10:45:53.870Z,95.71
2023-01-17T10:48:37.466Z,96.01
2023-01-17T10:51:26.719Z,96.42
2023-01-17T10:54:19.136Z,96.38
2023-01-17T10:56:46.319Z,96.18
2023-01-17T10:59:25.052Z,96.07
2023-01-17T11:01:52.293Z,96.83
2023-01-17T11:04:38.129Z,95.60
2023-01-17T11:07:14.192Z,95.95
2023-01-17T11:09:53.774Z,96.23
2023-01-17T11:12:31.028Z,96.62
2023-01-17T11:15:02.667Z,97.15
2023-01-17T11:17:31.467Z,96.08
2023-01-17T11:20:37.040Z,95.60
2023-01-17T11:23:14.646Z,96.79
2023-01-17T11:25:50.377Z,96.25
2023-01-17T11:28:26.455Z,96.02
2023-01-17T11:30:57.475Z,96.77
2023-01-17T11:33:45.928Z,96.08
2023-01-17T11:36:22.988Z,96.45
2023-01-17T11:39:22.037Z,97.48
2023-01-17T11:41:49.187Z,97.56
2023-01-17T11:44:27.705Z,97.28
2023-01-17T11:47:13.107Z,96.15
2023-01-17T11:49:50.097Z,97.68
2023-01-17T11:52:32.953Z,97.83
2023-01-17T11:55:00.203Z,98.20
2023-01-17T11:57:30.219Z,98.05
2023-01-17T12:00:24.436Z,97.46
2023-01-17T12:03:11.348Z,96.72
2023-01-17T12:05:44.740Z,96.60
2023-01-17T12:08:32.867Z,96.23
2023-01-17T12:11:05.997Z,96.60
2023-01-17T12:14:10.303Z,97.77
2023-01-17T12:17:43.794Z,98.37
2023-01-17T12:20:38.511Z,97.95
2023-01-17T12:23:33.789Z,98.41
2023-01-17T12:26:30.394Z,97.44
2023-01-17T12:29:31.180Z,97.27
2023-01-17T12:32:48.179Z,97.30
2023-01-17T12:35:24.549Z,98.62
2023-01-17T12:38:05.299Z,98.68
2023-01-17T12:40:54.136Z,97.86
2023-01-17T12:43:38.099Z,98.65
2023-01-17T12:46:21.353Z,99.03
2023-01-17T12:48:55.558Z,98.55
2023-01-17T12:51:29.389Z,97.10
2023-01-17T12:54:50.595Z,97.90
2023-01-17T12:57:25.749Z,97.69
2023-01-17T13:00:19.677Z,97.55
2023-01-17T13:03:12.417Z,98.07
2023-01-17T13:05:46.770Z,97.65
2023-01-17T13:08:22.389Z,97.31
2023-01-17T13:11:23.334Z,97.05
2023-01-17T13:13:52.328Z,95.33
2023-01-17T13:16:36.451Z,94.31
2023-01-17T13:19:33.682Z,94.33
2023-01-17T13:22:06.572Z,96.01
2023-01-17T13:24:58.680Z,96.32
2023-01-17T13:27:53.295Z,96.55
2023-01-17T13:30:57.746Z,95.75
2023-01-17T13:33:35.554Z,96.45
2023-01-17T13:36:40.214Z,96.86
2023-01-17T13:39:52.046Z,95.96
2023-01-17T13:42:56.059Z,95.02
2023-01-17T13:45:31.967Z,96.82
2023-01-17T13:48:17.192Z,96.07
2023-01-17T13:50:53.076Z,94.04
2023-01-17T13:53:29.155Z,95.00
2023-01-17T13:56:31.389Z,95.71
2023-01-17T13:59:04.979Z,96.85
2023-01-17T14:01:32.382Z,95.33
2023-01-17T14:04:06.308Z,96.02
2023-01-17T14:06:35.557Z,96.03
2023-01-17T14:09:13.420Z,96.35
2023-01-17T14:11:52.926Z,96.05
2023-01-17T14:14:44.451Z,95.72
2023-01-17T14:17:15.482Z,96.68
2023-01-17T14:19:48.609Z,95.33
2023-01-17T14:22:18.567Z,95.79
2023-01-17T14:25:12.145Z,95.82
2023-01-17T14:27:42.151Z,96.11
2023-01-17T14:30:26.392Z,96.40
2023-01-17T14:32:59.145Z,96.11
2023-01-17T14:35:33.121Z,95.71
2023-01-17T14:38:05.617Z,96.33
2023-01-17T14:40:38.201Z,95.64
2023-01-17T14:43:12.527Z,95.50
2023-01-17T14:45:40.331Z,95.95
2023-01-17T14:48:19.043Z,95.76
2023-01-17T14:50:49.326Z,95.16
2023-01-17T14:53:20.997Z,95.29
2023-01-17T14:55:47.914Z,96.42
2023-01-17T14:58:36.395Z,95.26
2023-01-17T15:01:20.067Z,95.49
2023-01-17T15:03:54.096Z,95.65
2023-01-17T15:06:33.897Z,95.71
2023-01-17T15:09:01.181Z,95.64
2023-01-17T15:11:33.599Z,95.46
2023-01-17T15:14:05.871Z,95.08
2023-01-17T15:16:37.192Z,94.68
2023-01-17T15:19:13.315Z,94.90
2023-01-17T15:21:43.166Z,95.60
2023-01-17T15:24:20.625Z,94.67
2023-01-17T15:26:48.343Z,95.15
2023-01-17T15:29:25.528Z,96.00
2023-01-17T15:32:02.202Z,94.28
2023-01-17T15:34:33.185Z,94.30
2023-01-17T15:37:29.723Z,95.79
2023-01-17T15:40:24.116Z,95.41
2023-01-17T15:42:57.213Z,94.20
2023-01-17T15:45:29.948Z,94.08
2023-01-17T15:47:59.271Z,94.43
2023-01-17T15:50:38.633Z,94.35
2023-01-17T15:53:31.642Z,94.61
2023-01-17T15:55:59.784Z,94.26
2023-01-17T15:58:30.387Z,93.94
2023-01-17T16:00:57.845Z,94.25
2023-01-17T16:03:30.659Z,93.33
2023-01-17T16:06:00.744Z,95.44
2023-01-17T16:08:38.768Z,93.48
2023-01-17T16:11:08.154Z,94.22
2023-01-17T16:13:39.292Z,94.05
2023-01-17T16:16:22.549Z,93.66
2023-01-17T16:18:59.070Z,93.51
2023-01-17T16:21:29.816Z,93.65
2023-01-17T16:23:57.094Z,94.31
2023-01-17T16:26:24.436Z,93.78
2023-01-17T16:28:51.924Z,93.86
2023-01-17T16:31:19.271Z,93.69
2023-01-17T16:33:50.715Z,94.02
2023-01-17T16:36:22.939Z,94.30
2023-01-17T16:38:52.440Z,95.44
2023-01-17T16:41:21.075Z,94.36
2023-01-17T16:43:59.342Z,95.13
2023-01-17T16:46:27.685Z,94.46
2023-01-17T16:48:55.703Z,94.81
2023-01-17T16:51:22.731Z,94.58
2023-01-17T16:53:50.057Z,94.89
2023-01-17T16:56:19.013Z,93.62
2023-01-17T16:58:46.671Z,94.11
2023-01-17T17:01:17.923Z,93.92
2023-01-17T17:03:46.449Z,95.67
2023-01-17T17:06:15.099Z,93.78
2023-01-17T17:08:43.395Z,95.54
2023-01-17T17:11:23.441Z,95.09
2023-01-17T17:13:51.626Z,95.90
2023-01-17T17:16:32.877Z,95.08
2023-01-17T17:19:06.698Z,94.72
2023-01-17T17:21:37.445Z,94.25
2023-01-17T17:24:04.946Z,94.91
2023-01-17T17:26:36.669Z,95.04
2023-01-17T17:29:07.134Z,94.46
2023-01-17T17:31:34.138Z,94.34
2023-01-17T17:34:02.644Z,95.13
2023-01-17T17:36:30.066Z,94.38
2023-01-17T17:38:58.605Z,95.88
2023-01-17T17:41:28.756Z,95.19
2023-01-17T17:43:56.199Z,95.60
2023-01-17T17:46:26.184Z,95.48
2023-01-17T17:48:53.739Z,95.22
2023-01-17T17:51:23.608Z,95.15
2023-01-17T17:53:52.964Z,95.52
2023-01-17T17:56:20.936Z,95.14
2023-01-17T17:58:50.699Z,95.01
2023-01-17T18:01:17.849Z,95.66
2023-01-17T18:03:46.084Z,95.48
2023-01-17T18:06:13.339Z,95.80
2023-01-17T18:08:40.191Z,95.46
2023-01-17T18:11:14.015Z,96.14
2023-01-17T18:13:42.887Z,95.55
2023-01-17T18:16:14.508Z,95.41
2023-01-17T18:18:45.925Z,95.75
2023-01-17T18:21:26.043Z,94.62
2023-01-17T18:23:58.692Z,95.26
2023-01-17T18:26:29.967Z,94.47
2023-01-17T18:28:59.093Z,95.11
2023-01-17T18:31:28.248Z,94.98
2023-01-17T18:33:58.107Z,95.99
2023-01-17T18:36:28.701Z,94.04
2023-01-17T18:38:56.330Z,94.28
2023-01-17T18:41:29.397Z,95.36
2023-01-17T18:43:57.058Z,95.00
2023-01-17T18:46:26.195Z,95.23
2023-01-17T18:48:57.167Z,94.67
2023-01-17T18:51:25.642Z,95.19
2023-01-17T18:53:53.057Z,94.54
2023-01-17T18:56:22.724Z,95.36
2023-01-17T18:58:50.898Z,94.75
2023-01-17T19:01:25.726Z,94.44
2023-01-17T19:03:57.892Z,95.48
2023-01-17T19:06:47.383Z,94.63
2023-01-17T19:09:16.519Z,94.71
2023-01-17T19:11:45.111Z,94.17
2023-01-17T19:14:12.922Z,94.75
2023-01-17T19:16:41.928Z,94.60
2023-01-17T19:19:13.687Z,95.15
2023-01-17T19:21:40.887Z,94.90
2023-01-17T19:24:10.558Z,94.20
2023-01-17T19:26:37.548Z,94.22
2023-01-17T19:29:05.285Z,94.72
2023-01-17T19:31:36.859Z,95.03
2023-01-17T19:34:03.935Z,94.28
2023-01-17T19:36:37.594Z,95.14
2023-01-17T19:39:09.257Z,94.79
2023-01-17T19:41:42.660Z,95.05
2023-01-17T19:44:12.247Z,94.75
2023-01-17T19:46:39.907Z,94.89
2023-01-17T19:49:08.840Z,94.16
2023-01-17T19:51:36.237Z,94.82
2023-01-17T19:54:04.281Z,94.24
2023-01-17T19:56:31.584Z,94.46
2023-01-17T19:59:01.679Z,93.96
2023-01-17T20:01:32.637Z,95.41
2023-01-17T20:04:02.844Z,94.67
2023-01-17T20:06:34.695Z,95.08
2023-01-17T20:09:03.367Z,94.58
2023-01-17T20:11:30.543Z,94.34
2023-01-17T20:13:59.785Z,94.76
2023-01-17T20:16:30.238Z,94.27
2023-01-17T20:18:59.443Z,94.28
2023-01-17T20:21:29.231Z,94.93
2023-01-17T20:23:58.580Z,94.61
2023-01-17T20:26:35.667Z,95.26
2023-01-17T20:29:11.322Z,95.55
2023-01-17T20:31:40.583Z,94.20
2023-01-17T20:34:10.820Z,94.84
2023-01-17T20:36:39.876Z,94.46
2023-01-17T20:39:08.592Z,94.37
2023-01-17T20:41:39.287Z,95.11
2023-01-17T20:44:10.456Z,95.49
2023-01-17T20:46:41.102Z,94.99
2023-01-17T20:49:17.082Z,94.96
2023-01-17T20:51:46.215Z,94.73
2023-01-17T20:54:16.452Z,95.69
2023-01-17T20:56:47.154Z,95.41
2023-01-17T20:59:17.849Z,94.89
2023-01-17T21:01:46.717Z,95.06
2023-01-17T21:04:14.915Z,94.83
2023-01-17T21:06:43.570Z,94.86
2023-01-17T21:09:15.326Z,93.96
2023-01-17T21:11:42.437Z,95.14
2023-01-17T21:14:09.689Z,94.09
2023-01-17T21:16:36.658Z,94.12
2023-01-17T21:19:04.648Z,93.38
2023-01-17T21:21:32.519Z,94.04
2023-01-17T21:23:59.872Z,94.19
2023-01-17T21:26:28.448Z,94.24
2023-01-17T21:28:56.083Z,93.93
2023-01-17T21:31:28.729Z,94.55
2023-01-17T21:33:59.613Z,93.73
2023-01-17T21:36:33.485Z,93.40
2023-01-17T21:39:04.805Z,93.63
2023-01-17T21:41:35.802Z,94.41
2023-01-17T21:44:08.012Z,92.72
2023-01-17T21:46:39.864Z,93.71
2023-01-17T21:49:10.712Z,93.60
2023-01-17T21:52:03.270Z,93.70
2023-01-17T21:54:55.752Z,94.00
2023-01-17T21:57:41.510Z,93.90
2023-01-17T22:00:15.655Z,93.42
2023-01-17T22:02:47.571Z,94.42
2023-01-17T22:05:16.883Z,93.33
2023-01-17T22:08:04.964Z,94.13
2023-01-17T22:10:32.563Z,93.70
2023-01-17T22:12:59.546Z,93.19
2023-01-17T22:15:26.644Z,93.50
2023-01-17T22:17:53.802Z,93.62
2023-01-17T22:20:21.511Z,93.50
2023-01-17T22:22:48.489Z,93.23
2023-01-17T22:25:15.642Z,93.06
2023-01-17T22:27:42.739Z,93.04
2023-01-17T22:30:13.040Z,93.69
2023-01-17T22:32:40.224Z,94.30
2023-01-17T22:35:08.320Z,94.00
2023-01-17T22:37:35.855Z,94.03
2023-01-17T22:40:04.998Z,93.04
2023-01-17T22:42:35.127Z,93.08
2023-01-17T22:45:02.281Z,94.00
2023-01-17T22:47:30.131Z,93.36
2023-01-17T22:49:57.465Z,92.60
2023-01-17T22:52:24.700Z,93.11
2023-01-17T22:54:51.942Z,93.20
2023-01-17T22:57:19.047Z,94.58
2023-01-17T22:59:45.986Z,93.07
2023-01-17T23:02:14.103Z,93.53
2023-01-17T23:04:42.976Z,93.21
2023-01-17T23:07:10.588Z,94.27
2023-01-17T23:09:37.617Z,93.03
2023-01-17T23:12:04.795Z,93.00
2023-01-17T23:14:53.213Z,93.88
2023-01-17T23:17:41.786Z,92.54
2023-01-17T23:20:11.889Z,93.00
2023-01-17T23:22:38.960Z,92.76
2023-01-17T23:25:12.666Z,93.32
2023-01-17T23:28:03.061Z,93.73
2023-01-17T23:30:37.496Z,94.18
2023-01-17T23:33:16.252Z,92.93
2023-01-17T23:35:46.148Z,92.56
2023-01-17T23:38:29.649Z,93.19
2023-01-17T23:41:33.271Z,92.21
2023-01-17T23:44:00.308Z,92.53
2023-01-17T23:46:30.122Z,92.81
2023-01-17T23:48:57.291Z,92.75
2023-01-17T23:51:24.183Z,92.46
2023-01-17T23:53:57.414Z,92.90
2023-01-17T23:56:24.966Z,92.61
2023-01-17T23:58:52.292Z,92.92
